createdAt,value
2022-12-01T00:01:27.352Z,70.91
2022-12-01T00:04:51.558Z,70.70
2022-12-01T00:08:13.251Z,71.31
2022-12-01T00:11:38.529Z,70.81
2022-12-01T00:15:01.189Z,72.01
2022-12-01T00:18:25.403Z,72.37
2022-12-01T00:21:49.915Z,72.21
2022-12-01T00:25:13.298Z,74.63
2022-12-01T00:28:39.484Z,73.12
2022-12-01T00:32:01.136Z,73.32
2022-12-01T00:35:23.113Z,72.61
2022-12-01T00:38:44.966Z,73.46
2022-12-01T00:42:13.309Z,74.36
2022-12-01T00:45:35.155Z,73.84
2022-12-01T00:48:56.754Z,74.02
2022-12-01T00:52:19.303Z,73.51
2022-12-01T00:55:43.180Z,73.01
2022-12-01T00:59:04.737Z,74.31
2022-12-01T01:02:26.392Z,74.44
2022-12-01T01:05:50.433Z,75.09
2022-12-01T01:09:13.345Z,72.77
2022-12-01T01:12:39.628Z,73.78
2022-12-01T01:16:13.977Z,73.25
2022-12-01T01:19:35.540Z,74.58
2022-12-01T01:22:57.121Z,74.25
2022-12-01T01:26:20.427Z,74.18
2022-12-01T01:29:42.588Z,74.32
2022-12-01T01:33:04.097Z,74.64
2022-12-01T01:36:26.296Z,74.25
2022-12-01T01:39:48.039Z,74.22
2022-12-01T01:43:16.008Z,74.61
2022-12-01T01:46:37.759Z,75.14
2022-12-01T01:50:06.575Z,75.19
2022-12-01T01:53:30.892Z,73.90
2022-12-01T01:56:54.163Z,74.32
2022-12-01T02:00:20.554Z,75.10
2022-12-01T02:03:43.242Z,75.68
2022-12-01T02:07:05.499Z,75.72
2022-12-01T02:11:04.645Z,76.04
2022-12-01T02:14:47.945Z,75.56
2022-12-01T02:18:27.122Z,75.11
2022-12-01T02:22:00.704Z,75.47
2022-12-01T02:25:31.616Z,76.05
2022-12-01T02:29:11.615Z,75.34
2022-12-01T02:33:00.419Z,75.69
2022-12-01T02:36:37.258Z,75.73
2022-12-01T02:40:03.655Z,75.50
2022-12-01T02:43:55.612Z,75.81
2022-12-01T02:47:20.594Z,75.61
2022-12-01T02:50:43.899Z,75.67
2022-12-01T02:54:06.429Z,75.11
2022-12-01T02:57:33.119Z,75.44
2022-12-01T03:01:18.080Z,75.74
2022-12-01T03:04:52.317Z,75.52
2022-12-01T03:08:46.116Z,75.87
2022-12-01T03:12:10.750Z,75.87
2022-12-01T03:15:50.787Z,76.74
2022-12-01T03:19:43.694Z,77.13
2022-12-01T03:23:09.924Z,76.87
2022-12-01T03:26:35.923Z,77.07
2022-12-01T03:30:00.185Z,75.92
2022-12-01T03:33:29.011Z,76.58
2022-12-01T03:36:58.735Z,75.84
2022-12-01T03:40:28.889Z,76.22
2022-12-01T03:44:02.151Z,76.52
2022-12-01T03:47:29.398Z,76.82
2022-12-01T03:50:53.965Z,76.55
2022-12-01T03:54:28.746Z,75.51
2022-12-01T03:57:57.002Z,75.68
2022-12-01T04:01:19.354Z,76.47
2022-12-01T04:04:40.979Z,76.07
2022-12-01T04:08:07.920Z,76.73
2022-12-01T04:11:48.487Z,76.55
2022-12-01T04:15:14.558Z,77.28
2022-12-01T04:18:36.150Z,77.56
2022-12-01T04:21:59.947Z,76.44
2022-12-01T04:25:23.739Z,76.68
2022-12-01T04:28:45.336Z,77.06
2022-12-01T04:32:09.476Z,77.30
2022-12-01T04:35:30.997Z,77.43
2022-12-01T04:38:57.641Z,77.26
2022-12-01T04:42:19.191Z,77.08
2022-12-01T04:45:43.456Z,77.15
2022-12-01T04:49:08.322Z,77.53
2022-12-01T04:52:35.091Z,77.04
2022-12-01T04:55:57.021Z,77.15
2022-12-01T04:59:23.400Z,77.47
2022-12-01T05:02:45.948Z,77.33
2022-12-01T05:06:10.639Z,77.29
2022-12-01T05:09:32.210Z,77.08
2022-12-01T05:12:57.999Z,77.08
2022-12-01T05:16:27.857Z,76.84
2022-12-01T05:20:08.174Z,76.72
2022-12-01T05:23:34.738Z,76.54
2022-12-01T05:26:58.765Z,75.91
2022-12-01T05:30:23.112Z,76.08
2022-12-01T05:33:48.568Z,76.53
2022-12-01T05:37:10.109Z,76.83
2022-12-01T05:40:34.258Z,76.55
2022-12-01T05:43:55.794Z,77.21
2022-12-01T05:47:17.382Z,77.07
2022-12-01T05:50:41.219Z,75.98
2022-12-01T05:54:03.209Z,76.30
2022-12-01T05:57:27.743Z,76.80
2022-12-01T06:00:49.377Z,77.66
2022-12-01T06:04:10.944Z,81.05
2022-12-01T06:07:34.660Z,76.97
2022-12-01T06:10:56.236Z,76.19
2022-12-01T06:14:17.988Z,76.22
2022-12-01T06:17:42.560Z,76.72
2022-12-01T06:21:06.440Z,76.68
2022-12-01T06:24:27.985Z,77.28
2022-12-01T06:27:52.287Z,77.00
2022-12-01T06:31:13.833Z,77.39
2022-12-01T06:34:35.552Z,77.42
2022-12-01T06:37:57.146Z,77.70
2022-12-01T06:41:20.796Z,77.59
2022-12-01T06:44:42.425Z,76.55
2022-12-01T06:48:06.889Z,77.43
2022-12-01T06:51:33.801Z,77.87
2022-12-01T06:54:57.804Z,77.63
2022-12-01T06:58:19.616Z,77.55
2022-12-01T07:01:41.600Z,77.25
2022-12-01T07:05:03.176Z,77.07
2022-12-01T07:08:26.123Z,77.03
2022-12-01T07:11:50.178Z,76.86
2022-12-01T07:15:14.517Z,77.45
2022-12-01T07:18:40.584Z,77.79
2022-12-01T07:22:04.685Z,77.69
2022-12-01T07:25:28.495Z,77.08
2022-12-01T07:28:55.307Z,77.74
2022-12-01T07:32:16.798Z,77.82
2022-12-01T07:35:38.323Z,78.34
2022-12-01T07:39:00.627Z,78.04
2022-12-01T07:42:22.194Z,77.28
2022-12-01T07:45:46.092Z,76.98
2022-12-01T07:49:08.448Z,75.93
2022-12-01T07:52:29.961Z,74.34
2022-12-01T07:55:51.498Z,73.13
2022-12-01T07:59:13.069Z,72.10
2022-12-01T08:02:40.546Z,69.90
2022-12-01T08:06:03.134Z,70.94
2022-12-01T08:09:24.707Z,70.27
2022-12-01T08:12:49.158Z,69.39
2022-12-01T08:16:16.034Z,68.86
2022-12-01T08:19:37.739Z,67.28
2022-12-01T08:23:03.394Z,67.53
2022-12-01T08:26:27.655Z,67.12
2022-12-01T08:29:51.655Z,67.27
2022-12-01T08:33:13.293Z,66.46
2022-12-01T08:36:35.558Z,65.61
2022-12-01T08:39:59.431Z,63.70
2022-12-01T08:43:49.342Z,61.79
2022-12-01T08:47:02.440Z,61.32
2022-12-01T08:50:24.179Z,59.59
2022-12-01T08:53:48.140Z,60.11
2022-12-01T08:57:09.750Z,59.13
2022-12-01T09:00:31.268Z,58.37
2022-12-01T09:04:13.762Z,58.16
2022-12-01T09:07:35.409Z,58.19
2022-12-01T09:11:01.983Z,58.05
2022-12-01T09:14:28.186Z,56.84
2022-12-01T09:17:49.756Z,58.94
2022-12-01T09:21:23.542Z,55.52
2022-12-01T09:25:08.253Z,55.21
2022-12-01T09:28:32.043Z,55.49
2022-12-01T09:31:58.095Z,54.75
2022-12-01T09:35:23.542Z,55.87
2022-12-01T09:38:45.428Z,55.83
2022-12-01T09:42:15.473Z,55.61
2022-12-01T09:45:41.393Z,56.82
2022-12-01T09:49:04.019Z,55.75
2022-12-01T09:52:27.981Z,54.66
2022-12-01T09:55:59.274Z,56.05
2022-12-01T09:59:32.780Z,53.49
2022-12-01T10:03:12.506Z,52.96
2022-12-01T10:06:44.336Z,52.38
2022-12-01T10:10:17.719Z,51.82
2022-12-01T10:13:39.506Z,49.76
2022-12-01T10:17:19.597Z,49.58
2022-12-01T10:21:02.226Z,48.48
2022-12-01T10:24:40.539Z,48.62
2022-12-01T10:28:39.462Z,47.66
2022-12-01T10:32:16.541Z,46.13
2022-12-01T10:35:41.773Z,45.98
2022-12-01T10:39:11.102Z,45.10
2022-12-01T10:42:46.238Z,45.40
2022-12-01T10:46:25.708Z,44.77
2022-12-01T10:49:48.195Z,43.84
2022-12-01T10:53:25.306Z,43.62
2022-12-01T10:56:49.521Z,44.71
2022-12-01T11:00:51.375Z,43.12
2022-12-01T11:04:27.559Z,43.44
2022-12-01T11:07:49.913Z,43.94
2022-12-01T11:11:39.983Z,44.11
2022-12-01T11:15:01.971Z,44.98
2022-12-01T11:18:36.369Z,42.44
2022-12-01T11:22:06.022Z,39.49
2022-12-01T11:25:27.605Z,40.37
2022-12-01T11:28:58.750Z,39.39
2022-12-01T11:32:33.827Z,40.01
2022-12-01T11:35:55.731Z,36.45
2022-12-01T11:39:32.557Z,36.79
2022-12-01T11:42:57.861Z,36.83
2022-12-01T11:46:33.067Z,35.27
2022-12-01T11:49:58.578Z,35.67
2022-12-01T11:53:30.621Z,33.59
2022-12-01T11:57:25.345Z,34.57
2022-12-01T12:00:50.679Z,34.75
2022-12-01T12:04:37.142Z,33.03
2022-12-01T12:08:32.798Z,32.68
2022-12-01T12:12:19.458Z,31.86
2022-12-01T12:15:56.251Z,31.84
2022-12-01T12:20:06.803Z,32.75
2022-12-01T12:23:48.661Z,34.38
2022-12-01T12:27:13.191Z,34.53
2022-12-01T12:30:52.279Z,33.57
2022-12-01T12:34:46.733Z,35.51
2022-12-01T12:38:26.986Z,35.53
2022-12-01T12:41:53.019Z,35.85
2022-12-01T12:45:29.930Z,36.49
2022-12-01T12:49:25.774Z,36.07
2022-12-01T12:52:55.821Z,35.52
2022-12-01T12:56:20.829Z,36.51
2022-12-01T12:59:59.301Z,37.35
2022-12-01T13:03:37.279Z,36.94
2022-12-01T13:07:05.698Z,40.10
2022-12-01T13:10:36.622Z,42.23
2022-12-01T13:14:23.355Z,45.11
2022-12-01T13:18:01.274Z,45.50
2022-12-01T13:21:24.199Z,46.05
2022-12-01T13:24:51.094Z,47.89
2022-12-01T13:28:28.973Z,48.62
2022-12-01T13:31:52.847Z,48.09
2022-12-01T13:35:23.411Z,49.17
2022-12-01T13:39:04.185Z,50.19
2022-12-01T13:42:32.386Z,50.22
2022-12-01T13:46:04.240Z,51.38
2022-12-01T13:49:44.197Z,51.22
2022-12-01T13:53:33.413Z,51.18
2022-12-01T13:57:04.875Z,52.06
2022-12-01T14:00:34.869Z,51.87
2022-12-01T14:04:02.467Z,52.05
2022-12-01T14:07:36.627Z,53.30
2022-12-01T14:11:01.690Z,52.74
2022-12-01T14:14:28.461Z,53.09
2022-12-01T14:18:21.982Z,53.84
2022-12-01T14:21:49.657Z,54.00
2022-12-01T14:25:20.383Z,54.57
2022-12-01T14:29:00.422Z,54.28
2022-12-01T14:32:23.050Z,55.34
2022-12-01T14:35:44.897Z,55.65
2022-12-01T14:39:11.495Z,55.64
2022-12-01T14:42:58.071Z,55.26
2022-12-01T14:46:24.601Z,56.65
2022-12-01T14:50:00.889Z,57.41
2022-12-01T14:53:32.832Z,57.55
2022-12-01T14:57:04.304Z,58.21
2022-12-01T15:00:27.532Z,56.61
2022-12-01T15:03:54.342Z,58.42
2022-12-01T15:07:21.615Z,58.11
2022-12-01T15:10:59.758Z,58.70
2022-12-01T15:14:26.357Z,58.65
2022-12-01T15:17:51.598Z,59.37
2022-12-01T15:21:20.716Z,60.02
2022-12-01T15:24:43.453Z,59.33
2022-12-01T15:28:22.985Z,59.47
2022-12-01T15:31:49.069Z,60.02
2022-12-01T15:35:20.503Z,59.61
2022-12-01T15:38:48.293Z,60.16
2022-12-01T15:42:26.157Z,60.19
2022-12-01T15:46:14.987Z,59.85
2022-12-01T15:49:51.476Z,61.47
2022-12-01T15:53:21.948Z,61.38
2022-12-01T15:56:44.677Z,62.23
2022-12-01T16:00:09.446Z,62.26
2022-12-01T16:03:50.346Z,64.38
2022-12-01T16:07:13.006Z,65.27
2022-12-01T16:10:36.645Z,62.76
2022-12-01T16:14:02.978Z,61.72
2022-12-01T16:17:27.312Z,62.52
2022-12-01T16:20:49.915Z,63.03
2022-12-01T16:24:31.534Z,62.52
2022-12-01T16:27:56.565Z,62.95
2022-12-01T16:31:20.770Z,63.90
2022-12-01T16:34:46.753Z,64.05
2022-12-01T16:38:19.510Z,65.46
2022-12-01T16:41:44.736Z,65.35
2022-12-01T16:45:09.582Z,65.08
2022-12-01T16:48:31.567Z,65.53
2022-12-01T16:51:57.432Z,71.82
2022-12-01T16:55:42.088Z,82.48
2022-12-01T16:59:04.948Z,76.27
2022-12-01T17:02:28.947Z,75.22
2022-12-01T17:05:51.156Z,75.05
2022-12-01T17:09:12.763Z,73.58
2022-12-01T17:12:34.333Z,68.65
2022-12-01T17:15:55.941Z,68.45
2022-12-01T17:19:20.168Z,69.11
2022-12-01T17:22:41.733Z,70.73
2022-12-01T17:26:07.773Z,69.50
2022-12-01T17:29:29.314Z,69.87
2022-12-01T17:32:50.978Z,70.31
2022-12-01T17:36:14.289Z,70.59
2022-12-01T17:39:38.087Z,71.01
2022-12-01T17:43:02.097Z,71.63
2022-12-01T17:46:26.062Z,71.49
2022-12-01T17:49:47.621Z,70.79
2022-12-01T17:53:09.325Z,71.80
2022-12-01T17:56:31.365Z,71.09
2022-12-01T17:59:52.929Z,71.80
2022-12-01T18:03:18.044Z,65.99
2022-12-01T18:06:39.961Z,66.04
2022-12-01T18:10:03.785Z,67.18
2022-12-01T18:13:25.360Z,67.85
2022-12-01T18:16:46.932Z,67.93
2022-12-01T18:20:09.129Z,68.49
2022-12-01T18:23:30.657Z,69.11
2022-12-01T18:26:56.757Z,68.64
2022-12-01T18:30:18.395Z,68.90
2022-12-01T18:33:41.946Z,68.41
2022-12-01T18:37:05.816Z,68.34
2022-12-01T18:40:27.343Z,68.81
2022-12-01T18:43:49.468Z,69.05
2022-12-01T18:47:11.165Z,70.31
2022-12-01T18:50:36.577Z,70.04
2022-12-01T18:53:59.473Z,70.63
2022-12-01T18:57:23.450Z,70.94
2022-12-01T19:00:45.089Z,70.72
2022-12-01T19:04:08.141Z,71.70
2022-12-01T19:07:30.226Z,71.33
2022-12-01T19:11:05.200Z,71.31
2022-12-01T19:14:30.674Z,71.44
2022-12-01T19:17:52.229Z,80.81
2022-12-01T19:21:16.554Z,79.59
2022-12-01T19:24:40.500Z,78.44
2022-12-01T19:28:02.480Z,77.68
2022-12-01T19:31:26.596Z,76.32
2022-12-01T19:34:48.476Z,75.64
2022-12-01T19:38:12.998Z,69.05
2022-12-01T19:41:39.782Z,69.64
2022-12-01T19:45:01.349Z,74.24
2022-12-01T19:48:22.922Z,79.43
2022-12-01T19:51:46.673Z,76.86
2022-12-01T19:55:09.201Z,76.66
2022-12-01T19:58:35.572Z,76.36
2022-12-01T20:01:59.750Z,76.61
2022-12-01T20:05:21.321Z,76.37
2022-12-01T20:08:43.346Z,76.24
2022-12-01T20:12:04.976Z,75.06
2022-12-01T20:15:28.861Z,76.69
2022-12-01T20:18:51.665Z,69.18
2022-12-01T20:22:13.258Z,70.27
2022-12-01T20:25:37.122Z,71.33
2022-12-01T20:29:04.125Z,72.04
2022-12-01T20:32:25.768Z,72.41
2022-12-01T20:35:50.008Z,73.28
2022-12-01T20:39:12.831Z,73.28
2022-12-01T20:42:39.657Z,73.20
2022-12-01T20:46:01.864Z,72.37
2022-12-01T20:49:26.006Z,71.81
2022-12-01T20:52:47.493Z,71.76
2022-12-01T20:56:11.605Z,71.98
2022-12-01T20:59:36.918Z,72.50
2022-12-01T21:03:01.176Z,80.97
2022-12-01T21:06:25.148Z,80.29
2022-12-01T21:09:46.903Z,79.89
2022-12-01T21:13:39.147Z,79.11
2022-12-01T21:17:09.678Z,79.34
2022-12-01T21:20:36.033Z,78.26
2022-12-01T21:24:18.714Z,76.28
2022-12-01T21:27:42.717Z,77.41
2022-12-01T21:31:15.417Z,78.46
2022-12-01T21:34:36.980Z,70.66
2022-12-01T21:38:04.309Z,71.32
2022-12-01T21:41:28.309Z,72.04
2022-12-01T21:44:52.294Z,72.40
2022-12-01T21:48:19.534Z,72.34
2022-12-01T21:51:41.205Z,73.17
2022-12-01T21:55:22.648Z,73.26
2022-12-01T21:58:46.828Z,72.84
2022-12-01T22:02:33.807Z,71.72
2022-12-01T22:06:28.680Z,71.99
2022-12-01T22:09:52.248Z,71.95
2022-12-01T22:13:13.812Z,72.92
2022-12-01T22:16:42.049Z,73.23
2022-12-01T22:20:20.593Z,73.16
2022-12-01T22:23:44.449Z,73.49
2022-12-01T22:27:33.194Z,74.69
2022-12-01T22:30:55.025Z,74.47
2022-12-01T22:34:22.593Z,74.17
2022-12-01T22:37:48.321Z,73.75
2022-12-01T22:41:14.110Z,74.23
2022-12-01T22:44:41.762Z,74.43
2022-12-01T22:48:13.379Z,75.30
2022-12-01T22:51:48.288Z,75.84
2022-12-01T22:55:18.367Z,75.92
2022-12-01T22:58:41.163Z,76.34
2022-12-01T23:02:20.730Z,75.47
2022-12-01T23:05:42.855Z,74.61
2022-12-01T23:09:13.454Z,74.80
2022-12-01T23:12:38.653Z,74.37
2022-12-01T23:16:00.293Z,73.72
2022-12-01T23:19:21.882Z,74.70
2022-12-01T23:22:43.582Z,74.89
2022-12-01T23:26:11.152Z,74.75
2022-12-01T23:29:32.833Z,74.17
2022-12-01T23:33:09.211Z,75.32
2022-12-01T23:36:33.121Z,76.78
2022-12-01T23:39:55.466Z,77.13
2022-12-01T23:43:24.424Z,77.70
2022-12-01T23:46:46.777Z,77.51
2022-12-01T23:50:22.500Z,77.68
2022-12-01T23:53:44.421Z,77.27
2022-12-01T23:57:20.694Z,77.11
